This is the latest recevied weather packets stored in our database for station/object LKCS. If no packets are shown the sender has not sent any weather packets the latest 10 day(s).
| Time | Temp. | Humidity | Pressure | Rain* | Wind** | Luminosity | Snow |
|---|---|---|---|---|---|---|---|
| 1787862785 | 22.78° C | 56% | 1017 hPa | - | - | - | - |
| 1787860986 | 22.78° C | 56% | 1016 hPa | - | - | - | - |
| 1787859191 | 22.78° C | 56% | 1016 hPa | - | - | - | - |
| 1787857360 | 23.89° C | 57% | 1016 hPa | - | - | - | - |
| 1787855558 | 23.89° C | 53% | 1016 hPa | - | - | - | - |
| 1787853760 | 25° C | 50% | 1016 hPa | - | - | - | - |
| 1787851958 | 26.11° C | 47% | 1016 hPa | - | - | - | - |
| 1787850195 | 27.22° C | 47% | 1016 hPa | - | - | - | - |
| 1787848384 | 27.78° C | 42% | 1016 hPa | - | - | - | - |
| 1787846594 | 27.78° C | 45% | 1016 hPa | - | - | - | - |
| 1787844786 | 27.78° C | 42% | 1017 hPa | - | - | - | - |
| 1787842968 | 27.78° C | 48% | 1016 hPa | - | - | - | - |
| 1787841185 | 27.78° C | 45% | 1017 hPa | - | - | - | - |
| 1787839393 | 27.78° C | 45% | 1017 hPa | - | - | - | - |
| 1787837585 | 27.78° C | 45% | 1017 hPa | - | - | - | - |
| 1787835800 | 28.89° C | 42% | 1017 hPa | - | - | - | - |
| 1787833985 | 27.78° C | 45% | 1017 hPa | - | - | - | - |
| 1787832177 | 27.22° C | 47% | 1017 hPa | - | - | - | - |
| 1787830385 | 26.11° C | 47% | 1017 hPa | - | - | - | - |
| 1787828566 | 27.22° C | 47% | 1018 hPa | - | - | - | - |
| 1787826763 | 26.11° C | 47% | 1018 hPa | - | - | - | - |
| 1787824994 | 25° C | 53% | 1018 hPa | - | - | - | - |
| 1787823184 | 23.89° C | 57% | 1018 hPa | - | - | - | - |
| 1787821393 | 22.22° C | 60% | 1018 hPa | - | - | - | - |
| 1787819585 | 21.11° C | 64% | 1018 hPa | - | - | - | - |
* Rain since midnight (hover to see other rain measurements)
** Current wind speed in m/s (hover to see current wind gust speed)